sensor_id;sensor_type;location;lat;lon;timestamp;P1;durP1;ratioP1;P2;durP2;ratioP2
58372;SDS011;44177;43.356;27.672;2023-02-15T00:01:04;20.77;;;11.63;;
58372;SDS011;44177;43.356;27.672;2023-02-15T00:03:34;20.15;;;11.10;;
58372;SDS011;44177;43.356;27.672;2023-02-15T00:05:59;22.25;;;11.13;;
58372;SDS011;44177;43.356;27.672;2023-02-15T00:08:25;20.85;;;11.13;;
58372;SDS011;44177;43.356;27.672;2023-02-15T00:10:50;17.92;;;10.05;;
58372;SDS011;44177;43.356;27.672;2023-02-15T00:13:16;18.92;;;10.50;;
58372;SDS011;44177;43.356;27.672;2023-02-15T00:15:41;19.50;;;10.73;;
58372;SDS011;44177;43.356;27.672;2023-02-15T00:18:07;22.60;;;10.68;;
58372;SDS011;44177;43.356;27.672;2023-02-15T00:20:32;19.15;;;11.00;;
58372;SDS011;44177;43.356;27.672;2023-02-15T00:22:58;18.48;;;10.35;;
58372;SDS011;44177;43.356;27.672;2023-02-15T00:25:24;17.05;;;9.38;;
58372;SDS011;44177;43.356;27.672;2023-02-15T00:27:49;16.40;;;9.27;;
58372;SDS011;44177;43.356;27.672;2023-02-15T00:30:15;16.23;;;9.88;;
58372;SDS011;44177;43.356;27.672;2023-02-15T00:32:40;17.83;;;10.15;;
58372;SDS011;44177;43.356;27.672;2023-02-15T00:35:06;16.80;;;9.30;;
58372;SDS011;44177;43.356;27.672;2023-02-15T00:37:32;15.95;;;8.88;;
58372;SDS011;44177;43.356;27.672;2023-02-15T00:39:57;15.05;;;9.02;;
58372;SDS011;44177;43.356;27.672;2023-02-15T00:42:23;16.30;;;9.48;;
58372;SDS011;44177;43.356;27.672;2023-02-15T00:44:48;14.77;;;9.00;;
58372;SDS011;44177;43.356;27.672;2023-02-15T00:47:14;16.85;;;9.55;;
58372;SDS011;44177;43.356;27.672;2023-02-15T00:49:39;17.70;;;10.05;;
58372;SDS011;44177;43.356;27.672;2023-02-15T00:52:05;18.17;;;9.80;;
58372;SDS011;44177;43.356;27.672;2023-02-15T00:54:30;18.63;;;9.05;;
58372;SDS011;44177;43.356;27.672;2023-02-15T00:56:55;15.43;;;8.98;;
58372;SDS011;44177;43.356;27.672;2023-02-15T00:59:21;18.50;;;9.50;;
58372;SDS011;44177;43.356;27.672;2023-02-15T01:01:46;15.02;;;9.05;;
58372;SDS011;44177;43.356;27.672;2023-02-15T01:04:12;17.08;;;9.25;;
58372;SDS011;44177;43.356;27.672;2023-02-15T01:06:37;16.80;;;9.60;;
58372;SDS011;44177;43.356;27.672;2023-02-15T01:09:03;17.38;;;9.48;;
58372;SDS011;44177;43.356;27.672;2023-02-15T01:11:28;13.98;;;8.88;;
58372;SDS011;44177;43.356;27.672;2023-02-15T01:13:55;16.30;;;8.90;;
58372;SDS011;44177;43.356;27.672;2023-02-15T01:16:23;20.95;;;10.30;;
58372;SDS011;44177;43.356;27.672;2023-02-15T01:18:50;16.83;;;9.07;;
58372;SDS011;44177;43.356;27.672;2023-02-15T01:21:17;15.48;;;8.98;;
58372;SDS011;44177;43.356;27.672;2023-02-15T01:23:44;14.02;;;8.18;;
58372;SDS011;44177;43.356;27.672;2023-02-15T01:26:10;14.57;;;7.82;;
58372;SDS011;44177;43.356;27.672;2023-02-15T01:28:37;15.90;;;8.77;;
58372;SDS011;44177;43.356;27.672;2023-02-15T01:31:10;15.70;;;8.88;;
58372;SDS011;44177;43.356;27.672;2023-02-15T01:33:38;15.57;;;9.02;;
58372;SDS011;44177;43.356;27.672;2023-02-15T01:36:04;15.90;;;8.55;;
58372;SDS011;44177;43.356;27.672;2023-02-15T01:38:30;16.73;;;8.60;;
58372;SDS011;44177;43.356;27.672;2023-02-15T01:40:56;14.60;;;8.52;;
58372;SDS011;44177;43.356;27.672;2023-02-15T01:43:42;14.82;;;8.23;;
58372;SDS011;44177;43.356;27.672;2023-02-15T01:46:10;16.38;;;9.20;;
58372;SDS011;44177;43.356;27.672;2023-02-15T01:48:39;15.38;;;8.98;;
58372;SDS011;44177;43.356;27.672;2023-02-15T01:51:09;17.15;;;9.48;;
58372;SDS011;44177;43.356;27.672;2023-02-15T01:53:36;15.02;;;8.68;;
58372;SDS011;44177;43.356;27.672;2023-02-15T01:56:07;18.10;;;9.77;;
58372;SDS011;44177;43.356;27.672;2023-02-15T01:58:36;18.88;;;9.60;;
58372;SDS011;44177;43.356;27.672;2023-02-15T02:01:02;16.00;;;8.48;;
58372;SDS011;44177;43.356;27.672;2023-02-15T02:06:05;15.80;;;9.27;;
58372;SDS011;44177;43.356;27.672;2023-02-15T02:08:30;16.23;;;8.68;;
58372;SDS011;44177;43.356;27.672;2023-02-15T02:10:57;15.25;;;8.77;;
58372;SDS011;44177;43.356;27.672;2023-02-15T02:13:22;15.90;;;9.02;;
58372;SDS011;44177;43.356;27.672;2023-02-15T02:15:58;17.02;;;9.25;;
58372;SDS011;44177;43.356;27.672;2023-02-15T02:21:13;17.90;;;9.50;;
58372;SDS011;44177;43.356;27.672;2023-02-15T02:23:49;15.95;;;8.90;;
58372;SDS011;44177;43.356;27.672;2023-02-15T02:35:38;15.85;;;8.98;;
58372;SDS011;44177;43.356;27.672;2023-02-15T02:42:51;17.48;;;8.93;;
58372;SDS011;44177;43.356;27.672;2023-02-15T02:48:14;15.80;;;8.35;;
58372;SDS011;44177;43.356;27.672;2023-02-15T02:50:43;14.30;;;8.45;;
58372;SDS011;44177;43.356;27.672;2023-02-15T02:53:09;16.15;;;8.30;;
58372;SDS011;44177;43.356;27.672;2023-02-15T03:00:53;14.27;;;8.48;;
58372;SDS011;44177;43.356;27.672;2023-02-15T03:05:53;16.05;;;8.02;;
58372;SDS011;44177;43.356;27.672;2023-02-15T03:08:23;15.95;;;8.77;;
58372;SDS011;44177;43.356;27.672;2023-02-15T03:10:53;16.35;;;8.35;;
58372;SDS011;44177;43.356;27.672;2023-02-15T03:13:22;13.73;;;7.70;;
58372;SDS011;44177;43.356;27.672;2023-02-15T03:15:48;15.68;;;8.07;;
58372;SDS011;44177;43.356;27.672;2023-02-15T03:18:39;12.32;;;7.45;;
58372;SDS011;44177;43.356;27.672;2023-02-15T03:21:09;15.37;;;8.43;;
58372;SDS011;44177;43.356;27.672;2023-02-15T03:23:48;15.13;;;8.15;;
58372;SDS011;44177;43.356;27.672;2023-02-15T03:26:17;13.30;;;7.15;;
58372;SDS011;44177;43.356;27.672;2023-02-15T03:28:45;13.93;;;7.40;;
58372;SDS011;44177;43.356;27.672;2023-02-15T03:31:13;15.13;;;7.53;;
58372;SDS011;44177;43.356;27.672;2023-02-15T03:33:45;12.57;;;7.65;;
58372;SDS011;44177;43.356;27.672;2023-02-15T03:41:58;13.35;;;6.80;;
58372;SDS011;44177;43.356;27.672;2023-02-15T03:44:31;10.55;;;6.47;;
58372;SDS011;44177;43.356;27.672;2023-02-15T03:47:04;13.13;;;7.30;;
58372;SDS011;44177;43.356;27.672;2023-02-15T03:49:44;12.05;;;7.00;;
58372;SDS011;44177;43.356;27.672;2023-02-15T03:52:12;11.65;;;6.93;;
58372;SDS011;44177;43.356;27.672;2023-02-15T03:54:39;11.82;;;6.82;;
58372;SDS011;44177;43.356;27.672;2023-02-15T03:57:17;10.13;;;6.43;;
58372;SDS011;44177;43.356;27.672;2023-02-15T04:00:09;10.95;;;6.40;;
58372;SDS011;44177;43.356;27.672;2023-02-15T04:03:31;13.77;;;6.50;;
58372;SDS011;44177;43.356;27.672;2023-02-15T04:05:49;11.18;;;6.10;;
58372;SDS011;44177;43.356;27.672;2023-02-15T04:08:14;10.68;;;6.88;;
58372;SDS011;44177;43.356;27.672;2023-02-15T04:10:40;10.77;;;6.25;;
58372;SDS011;44177;43.356;27.672;2023-02-15T04:13:20;10.30;;;6.15;;
58372;SDS011;44177;43.356;27.672;2023-02-15T04:15:55;11.10;;;6.00;;
58372;SDS011;44177;43.356;27.672;2023-02-15T04:18:33;9.60;;;5.90;;
58372;SDS011;44177;43.356;27.672;2023-02-15T04:21:20;13.38;;;6.45;;
58372;SDS011;44177;43.356;27.672;2023-02-15T04:24:05;11.05;;;6.45;;
58372;SDS011;44177;43.356;27.672;2023-02-15T04:26:49;10.40;;;6.22;;
58372;SDS011;44177;43.356;27.672;2023-02-15T04:29:18;11.13;;;6.15;;
58372;SDS011;44177;43.356;27.672;2023-02-15T04:31:45;12.27;;;6.43;;
58372;SDS011;44177;43.356;27.672;2023-02-15T04:34:10;10.77;;;6.95;;
58372;SDS011;44177;43.356;27.672;2023-02-15T04:36:36;10.10;;;6.05;;
58372;SDS011;44177;43.356;27.672;2023-02-15T04:39:03;10.68;;;5.55;;
58372;SDS011;44177;43.356;27.672;2023-02-15T04:41:29;10.77;;;6.38;;
58372;SDS011;44177;43.356;27.672;2023-02-15T04:43:54;8.18;;;5.72;;
58372;SDS011;44177;43.356;27.672;2023-02-15T04:46:20;9.13;;;5.88;;
58372;SDS011;44177;43.356;27.672;2023-02-15T04:48:45;12.20;;;6.35;;
58372;SDS011;44177;43.356;27.672;2023-02-15T04:51:10;10.43;;;5.95;;
58372;SDS011;44177;43.356;27.672;2023-02-15T04:53:36;10.27;;;6.18;;
58372;SDS011;44177;43.356;27.672;2023-02-15T04:56:02;9.32;;;6.00;;
58372;SDS011;44177;43.356;27.672;2023-02-15T04:58:27;10.73;;;6.10;;
58372;SDS011;44177;43.356;27.672;2023-02-15T05:00:56;11.38;;;5.97;;
58372;SDS011;44177;43.356;27.672;2023-02-15T05:03:23;9.63;;;5.82;;
58372;SDS011;44177;43.356;27.672;2023-02-15T05:05:48;10.57;;;6.18;;
58372;SDS011;44177;43.356;27.672;2023-02-15T05:08:14;10.30;;;5.90;;
58372;SDS011;44177;43.356;27.672;2023-02-15T05:10:39;9.85;;;6.00;;
58372;SDS011;44177;43.356;27.672;2023-02-15T05:13:05;10.82;;;6.03;;
58372;SDS011;44177;43.356;27.672;2023-02-15T05:15:30;10.60;;;6.18;;
58372;SDS011;44177;43.356;27.672;2023-02-15T05:17:56;10.27;;;6.00;;
58372;SDS011;44177;43.356;27.672;2023-02-15T05:20:21;11.00;;;5.55;;
58372;SDS011;44177;43.356;27.672;2023-02-15T05:22:47;10.93;;;6.25;;
58372;SDS011;44177;43.356;27.672;2023-02-15T05:25:12;11.40;;;6.13;;
58372;SDS011;44177;43.356;27.672;2023-02-15T05:27:57;9.60;;;6.13;;
58372;SDS011;44177;43.356;27.672;2023-02-15T05:30:41;10.40;;;5.60;;
58372;SDS011;44177;43.356;27.672;2023-02-15T05:33:07;10.32;;;5.90;;
58372;SDS011;44177;43.356;27.672;2023-02-15T05:35:32;11.18;;;5.72;;
58372;SDS011;44177;43.356;27.672;2023-02-15T05:37:59;10.43;;;5.75;;
58372;SDS011;44177;43.356;27.672;2023-02-15T05:40:24;11.10;;;5.90;;
58372;SDS011;44177;43.356;27.672;2023-02-15T05:42:50;10.15;;;5.40;;
58372;SDS011;44177;43.356;27.672;2023-02-15T05:45:15;9.25;;;5.47;;
58372;SDS011;44177;43.356;27.672;2023-02-15T05:47:41;11.82;;;6.07;;
58372;SDS011;44177;43.356;27.672;2023-02-15T05:50:09;9.82;;;5.78;;
58372;SDS011;44177;43.356;27.672;2023-02-15T05:52:36;9.80;;;5.60;;
58372;SDS011;44177;43.356;27.672;2023-02-15T05:55:02;9.88;;;5.60;;
58372;SDS011;44177;43.356;27.672;2023-02-15T05:57:29;10.32;;;6.05;;
58372;SDS011;44177;43.356;27.672;2023-02-15T05:59:54;10.07;;;5.72;;
58372;SDS011;44177;43.356;27.672;2023-02-15T06:02:20;11.70;;;6.00;;
58372;SDS011;44177;43.356;27.672;2023-02-15T06:04:45;10.27;;;6.30;;
58372;SDS011;44177;43.356;27.672;2023-02-15T06:07:11;8.57;;;5.43;;
58372;SDS011;44177;43.356;27.672;2023-02-15T06:09:36;10.73;;;5.65;;
58372;SDS011;44177;43.356;27.672;2023-02-15T06:12:01;10.43;;;5.60;;
58372;SDS011;44177;43.356;27.672;2023-02-15T06:14:27;9.35;;;5.50;;
58372;SDS011;44177;43.356;27.672;2023-02-15T06:16:52;9.73;;;5.60;;
58372;SDS011;44177;43.356;27.672;2023-02-15T06:19:18;10.88;;;5.90;;
58372;SDS011;44177;43.356;27.672;2023-02-15T06:21:44;10.48;;;5.88;;
58372;SDS011;44177;43.356;27.672;2023-02-15T06:24:09;11.13;;;5.80;;
58372;SDS011;44177;43.356;27.672;2023-02-15T06:26:35;10.40;;;6.05;;
58372;SDS011;44177;43.356;27.672;2023-02-15T06:29:00;13.32;;;5.97;;
58372;SDS011;44177;43.356;27.672;2023-02-15T06:31:25;10.60;;;5.63;;
58372;SDS011;44177;43.356;27.672;2023-02-15T06:33:51;11.07;;;6.05;;
58372;SDS011;44177;43.356;27.672;2023-02-15T06:36:16;11.27;;;6.03;;
58372;SDS011;44177;43.356;27.672;2023-02-15T06:38:42;12.20;;;6.38;;
58372;SDS011;44177;43.356;27.672;2023-02-15T06:41:07;9.25;;;5.70;;
58372;SDS011;44177;43.356;27.672;2023-02-15T06:43:33;11.02;;;6.20;;
58372;SDS011;44177;43.356;27.672;2023-02-15T06:45:59;9.63;;;5.85;;
58372;SDS011;44177;43.356;27.672;2023-02-15T06:48:25;11.35;;;6.25;;
58372;SDS011;44177;43.356;27.672;2023-02-15T06:50:51;9.52;;;5.40;;
58372;SDS011;44177;43.356;27.672;2023-02-15T06:53:16;10.18;;;6.60;;
58372;SDS011;44177;43.356;27.672;2023-02-15T06:55:42;9.55;;;5.85;;
58372;SDS011;44177;43.356;27.672;2023-02-15T06:58:07;9.57;;;5.97;;
58372;SDS011;44177;43.356;27.672;2023-02-15T07:00:33;9.63;;;6.00;;
58372;SDS011;44177;43.356;27.672;2023-02-15T07:02:58;10.07;;;5.85;;
58372;SDS011;44177;43.356;27.672;2023-02-15T07:05:24;11.68;;;6.30;;
58372;SDS011;44177;43.356;27.672;2023-02-15T07:07:55;10.25;;;6.03;;
58372;SDS011;44177;43.356;27.672;2023-02-15T07:10:22;12.82;;;6.60;;
58372;SDS011;44177;43.356;27.672;2023-02-15T07:12:47;11.00;;;6.15;;
58372;SDS011;44177;43.356;27.672;2023-02-15T07:15:14;10.43;;;6.68;;
58372;SDS011;44177;43.356;27.672;2023-02-15T07:17:41;11.02;;;6.03;;
58372;SDS011;44177;43.356;27.672;2023-02-15T07:20:14;11.77;;;6.05;;
58372;SDS011;44177;43.356;27.672;2023-02-15T07:22:46;10.90;;;6.05;;
58372;SDS011;44177;43.356;27.672;2023-02-15T07:25:12;11.45;;;6.15;;
58372;SDS011;44177;43.356;27.672;2023-02-15T07:27:38;10.15;;;5.97;;
58372;SDS011;44177;43.356;27.672;2023-02-15T07:30:05;12.50;;;7.05;;
58372;SDS011;44177;43.356;27.672;2023-02-15T07:32:32;10.10;;;5.82;;
58372;SDS011;44177;43.356;27.672;2023-02-15T07:34:59;10.98;;;5.70;;
58372;SDS011;44177;43.356;27.672;2023-02-15T07:37:25;9.60;;;6.13;;
58372;SDS011;44177;43.356;27.672;2023-02-15T07:39:51;11.25;;;5.55;;
58372;SDS011;44177;43.356;27.672;2023-02-15T07:42:17;11.43;;;6.38;;
58372;SDS011;44177;43.356;27.672;2023-02-15T07:44:44;10.43;;;6.20;;
58372;SDS011;44177;43.356;27.672;2023-02-15T07:47:10;10.95;;;5.82;;
58372;SDS011;44177;43.356;27.672;2023-02-15T07:49:36;9.85;;;6.15;;
58372;SDS011;44177;43.356;27.672;2023-02-15T07:52:01;9.38;;;5.68;;
58372;SDS011;44177;43.356;27.672;2023-02-15T07:54:27;10.20;;;6.28;;
58372;SDS011;44177;43.356;27.672;2023-02-15T07:56:52;8.93;;;6.07;;
58372;SDS011;44177;43.356;27.672;2023-02-15T07:59:18;9.88;;;5.75;;
58372;SDS011;44177;43.356;27.672;2023-02-15T08:01:43;11.60;;;6.40;;
58372;SDS011;44177;43.356;27.672;2023-02-15T08:04:09;9.70;;;5.95;;
58372;SDS011;44177;43.356;27.672;2023-02-15T08:06:36;9.88;;;5.90;;
58372;SDS011;44177;43.356;27.672;2023-02-15T08:09:06;10.15;;;6.22;;
58372;SDS011;44177;43.356;27.672;2023-02-15T08:11:34;10.07;;;5.97;;
58372;SDS011;44177;43.356;27.672;2023-02-15T08:19:03;11.80;;;6.05;;
58372;SDS011;44177;43.356;27.672;2023-02-15T08:21:32;9.27;;;6.15;;
58372;SDS011;44177;43.356;27.672;2023-02-15T08:23:59;11.02;;;6.40;;
58372;SDS011;44177;43.356;27.672;2023-02-15T08:26:25;10.75;;;6.03;;
58372;SDS011;44177;43.356;27.672;2023-02-15T08:28:52;11.88;;;5.95;;
58372;SDS011;44177;43.356;27.672;2023-02-15T08:31:19;11.18;;;6.13;;
58372;SDS011;44177;43.356;27.672;2023-02-15T08:33:45;10.43;;;6.03;;
58372;SDS011;44177;43.356;27.672;2023-02-15T08:36:14;9.93;;;6.22;;
58372;SDS011;44177;43.356;27.672;2023-02-15T08:38:41;8.82;;;5.63;;
58372;SDS011;44177;43.356;27.672;2023-02-15T08:41:11;11.10;;;6.00;;
58372;SDS011;44177;43.356;27.672;2023-02-15T08:43:44;12.23;;;5.97;;
58372;SDS011;44177;43.356;27.672;2023-02-15T08:46:16;10.60;;;6.25;;
58372;SDS011;44177;43.356;27.672;2023-02-15T08:48:42;10.02;;;6.13;;
58372;SDS011;44177;43.356;27.672;2023-02-15T08:51:10;11.77;;;5.95;;
58372;SDS011;44177;43.356;27.672;2023-02-15T08:53:36;12.80;;;6.20;;
58372;SDS011;44177;43.356;27.672;2023-02-15T08:56:03;10.00;;;6.20;;
58372;SDS011;44177;43.356;27.672;2023-02-15T08:58:29;11.40;;;6.25;;
58372;SDS011;44177;43.356;27.672;2023-02-15T09:00:55;11.60;;;6.20;;
58372;SDS011;44177;43.356;27.672;2023-02-15T09:03:22;10.88;;;6.53;;
58372;SDS011;44177;43.356;27.672;2023-02-15T09:05:47;11.52;;;6.50;;
58372;SDS011;44177;43.356;27.672;2023-02-15T09:08:13;11.25;;;6.80;;
58372;SDS011;44177;43.356;27.672;2023-02-15T09:10:38;10.98;;;6.05;;
58372;SDS011;44177;43.356;27.672;2023-02-15T09:13:04;11.07;;;6.18;;
58372;SDS011;44177;43.356;27.672;2023-02-15T09:15:29;9.40;;;5.93;;
58372;SDS011;44177;43.356;27.672;2023-02-15T09:17:55;12.25;;;6.53;;
58372;SDS011;44177;43.356;27.672;2023-02-15T09:20:21;10.25;;;6.18;;
58372;SDS011;44177;43.356;27.672;2023-02-15T09:22:47;10.38;;;6.25;;
58372;SDS011;44177;43.356;27.672;2023-02-15T09:25:12;9.30;;;5.70;;
58372;SDS011;44177;43.356;27.672;2023-02-15T09:27:38;10.43;;;6.63;;
58372;SDS011;44177;43.356;27.672;2023-02-15T09:30:05;10.23;;;5.63;;
58372;SDS011;44177;43.356;27.672;2023-02-15T09:32:31;11.50;;;5.65;;
58372;SDS011;44177;43.356;27.672;2023-02-15T09:34:56;8.77;;;5.93;;
58372;SDS011;44177;43.356;27.672;2023-02-15T09:37:22;10.25;;;5.82;;
58372;SDS011;44177;43.356;27.672;2023-02-15T09:39:47;9.25;;;5.70;;
58372;SDS011;44177;43.356;27.672;2023-02-15T09:48:16;10.98;;;5.88;;
58372;SDS011;44177;43.356;27.672;2023-02-15T09:56:50;12.00;;;6.15;;
58372;SDS011;44177;43.356;27.672;2023-02-15T10:05:14;9.60;;;5.85;;
58372;SDS011;44177;43.356;27.672;2023-02-15T10:16:41;9.18;;;5.75;;
58372;SDS011;44177;43.356;27.672;2023-02-15T10:19:22;8.15;;;5.30;;
58372;SDS011;44177;43.356;27.672;2023-02-15T10:22:30;7.97;;;5.30;;
58372;SDS011;44177;43.356;27.672;2023-02-15T10:27:54;8.53;;;5.60;;
58372;SDS011;44177;43.356;27.672;2023-02-15T10:30:39;9.43;;;5.93;;
58372;SDS011;44177;43.356;27.672;2023-02-15T10:33:27;9.90;;;5.90;;
58372;SDS011;44177;43.356;27.672;2023-02-15T10:40:01;10.82;;;6.07;;
58372;SDS011;44177;43.356;27.672;2023-02-15T10:42:11;10.30;;;5.95;;
58372;SDS011;44177;43.356;27.672;2023-02-15T11:00:55;9.77;;;5.70;;
58372;SDS011;44177;43.356;27.672;2023-02-15T11:06:11;10.45;;;5.80;;
58372;SDS011;44177;43.356;27.672;2023-02-15T11:08:40;9.68;;;5.93;;
58372;SDS011;44177;43.356;27.672;2023-02-15T11:11:11;10.38;;;6.03;;
58372;SDS011;44177;43.356;27.672;2023-02-15T11:13:46;9.10;;;5.57;;
58372;SDS011;44177;43.356;27.672;2023-02-15T11:16:22;11.07;;;5.75;;
58372;SDS011;44177;43.356;27.672;2023-02-15T11:18:56;8.55;;;5.28;;
58372;SDS011;44177;43.356;27.672;2023-02-15T11:21:30;8.65;;;5.43;;
58372;SDS011;44177;43.356;27.672;2023-02-15T11:24:07;8.77;;;6.00;;
58372;SDS011;44177;43.356;27.672;2023-02-15T11:26:39;10.05;;;5.72;;
58372;SDS011;44177;43.356;27.672;2023-02-15T11:31:49;9.77;;;5.50;;
58372;SDS011;44177;43.356;27.672;2023-02-15T11:34:21;9.13;;;5.95;;
58372;SDS011;44177;43.356;27.672;2023-02-15T11:37:10;10.30;;;6.13;;
58372;SDS011;44177;43.356;27.672;2023-02-15T11:39:40;12.05;;;6.20;;
58372;SDS011;44177;43.356;27.672;2023-02-15T11:42:10;9.60;;;5.65;;
58372;SDS011;44177;43.356;27.672;2023-02-15T11:44:41;9.90;;;6.00;;
58372;SDS011;44177;43.356;27.672;2023-02-15T11:47:16;9.30;;;5.93;;
58372;SDS011;44177;43.356;27.672;2023-02-15T11:49:42;8.75;;;5.53;;
58372;SDS011;44177;43.356;27.672;2023-02-15T11:52:12;10.60;;;5.78;;
58372;SDS011;44177;43.356;27.672;2023-02-15T11:54:41;10.73;;;5.90;;
58372;SDS011;44177;43.356;27.672;2023-02-15T11:59:48;8.88;;;5.78;;
58372;SDS011;44177;43.356;27.672;2023-02-15T12:02:21;8.77;;;5.72;;
58372;SDS011;44177;43.356;27.672;2023-02-15T12:04:49;10.73;;;5.78;;
58372;SDS011;44177;43.356;27.672;2023-02-15T12:07:26;10.45;;;5.97;;
58372;SDS011;44177;43.356;27.672;2023-02-15T12:09:59;10.15;;;5.80;;
58372;SDS011;44177;43.356;27.672;2023-02-15T12:12:39;8.07;;;4.90;;
58372;SDS011;44177;43.356;27.672;2023-02-15T12:15:08;9.95;;;5.95;;
58372;SDS011;44177;43.356;27.672;2023-02-15T12:22:39;10.43;;;6.55;;
58372;SDS011;44177;43.356;27.672;2023-02-15T12:25:20;9.63;;;5.38;;
58372;SDS011;44177;43.356;27.672;2023-02-15T12:27:52;9.50;;;5.75;;
58372;SDS011;44177;43.356;27.672;2023-02-15T12:30:19;8.60;;;5.97;;
58372;SDS011;44177;43.356;27.672;2023-02-15T12:32:51;9.23;;;5.90;;
58372;SDS011;44177;43.356;27.672;2023-02-15T12:35:29;9.02;;;5.57;;
58372;SDS011;44177;43.356;27.672;2023-02-15T12:38:01;9.50;;;5.50;;
58372;SDS011;44177;43.356;27.672;2023-02-15T12:40:30;9.68;;;5.82;;
58372;SDS011;44177;43.356;27.672;2023-02-15T12:42:58;10.18;;;6.07;;
58372;SDS011;44177;43.356;27.672;2023-02-15T12:45:30;9.52;;;6.10;;
58372;SDS011;44177;43.356;27.672;2023-02-15T12:48:14;10.05;;;5.95;;
58372;SDS011;44177;43.356;27.672;2023-02-15T12:50:42;8.80;;;5.57;;
58372;SDS011;44177;43.356;27.672;2023-02-15T12:53:14;11.02;;;6.57;;
58372;SDS011;44177;43.356;27.672;2023-02-15T12:58:22;9.05;;;5.85;;
58372;SDS011;44177;43.356;27.672;2023-02-15T13:03:33;9.85;;;6.07;;
58372;SDS011;44177;43.356;27.672;2023-02-15T13:06:00;9.35;;;5.93;;
58372;SDS011;44177;43.356;27.672;2023-02-15T13:08:33;11.73;;;6.32;;
58372;SDS011;44177;43.356;27.672;2023-02-15T13:13:36;10.73;;;6.00;;
58372;SDS011;44177;43.356;27.672;2023-02-15T13:16:28;9.30;;;6.03;;
58372;SDS011;44177;43.356;27.672;2023-02-15T13:21:23;11.50;;;5.90;;
58372;SDS011;44177;43.356;27.672;2023-02-15T13:26:54;10.68;;;6.32;;
58372;SDS011;44177;43.356;27.672;2023-02-15T13:29:28;10.38;;;6.05;;
58372;SDS011;44177;43.356;27.672;2023-02-15T13:31:57;12.02;;;6.00;;
58372;SDS011;44177;43.356;27.672;2023-02-15T13:37:16;10.57;;;5.65;;
58372;SDS011;44177;43.356;27.672;2023-02-15T13:39:47;10.02;;;5.90;;
58372;SDS011;44177;43.356;27.672;2023-02-15T13:42:28;9.45;;;6.07;;
58372;SDS011;44177;43.356;27.672;2023-02-15T13:51:01;10.65;;;6.32;;
58372;SDS011;44177;43.356;27.672;2023-02-15T14:07:21;11.40;;;6.20;;
58372;SDS011;44177;43.356;27.672;2023-02-15T14:15:42;10.57;;;6.20;;
58372;SDS011;44177;43.356;27.672;2023-02-15T14:26:49;10.07;;;5.88;;
58372;SDS011;44177;43.356;27.672;2023-02-15T14:32:05;10.80;;;6.50;;
58372;SDS011;44177;43.356;27.672;2023-02-15T14:37:06;10.45;;;6.28;;
58372;SDS011;44177;43.356;27.672;2023-02-15T14:39:53;10.20;;;6.00;;
58372;SDS011;44177;43.356;27.672;2023-02-15T14:45:39;11.23;;;6.60;;
58372;SDS011;44177;43.356;27.672;2023-02-15T14:48:16;9.68;;;6.45;;
58372;SDS011;44177;43.356;27.672;2023-02-15T14:50:47;8.82;;;5.65;;
58372;SDS011;44177;43.356;27.672;2023-02-15T14:56:38;11.45;;;6.10;;
58372;SDS011;44177;43.356;27.672;2023-02-15T15:01:24;9.38;;;5.65;;
58372;SDS011;44177;43.356;27.672;2023-02-15T15:04:07;9.30;;;6.10;;
58372;SDS011;44177;43.356;27.672;2023-02-15T15:06:40;10.90;;;6.43;;
58372;SDS011;44177;43.356;27.672;2023-02-15T15:14:47;10.88;;;6.00;;
58372;SDS011;44177;43.356;27.672;2023-02-15T15:20:02;10.15;;;5.57;;
58372;SDS011;44177;43.356;27.672;2023-02-15T15:22:36;8.80;;;5.97;;
58372;SDS011;44177;43.356;27.672;2023-02-15T15:25:03;11.30;;;6.20;;
58372;SDS011;44177;43.356;27.672;2023-02-15T15:27:48;9.07;;;5.32;;
58372;SDS011;44177;43.356;27.672;2023-02-15T15:41:28;8.15;;;5.05;;
58372;SDS011;44177;43.356;27.672;2023-02-15T15:49:56;8.25;;;5.45;;
58372;SDS011;44177;43.356;27.672;2023-02-15T15:52:23;7.40;;;5.18;;
58372;SDS011;44177;43.356;27.672;2023-02-15T15:54:52;9.43;;;5.65;;
58372;SDS011;44177;43.356;27.672;2023-02-15T15:57:50;8.07;;;5.53;;
58372;SDS011;44177;43.356;27.672;2023-02-15T16:02:56;10.43;;;5.30;;
58372;SDS011;44177;43.356;27.672;2023-02-15T16:05:21;9.13;;;5.22;;
58372;SDS011;44177;43.356;27.672;2023-02-15T16:07:48;7.78;;;5.13;;
58372;SDS011;44177;43.356;27.672;2023-02-15T16:10:24;9.68;;;4.93;;
58372;SDS011;44177;43.356;27.672;2023-02-15T16:12:51;8.20;;;5.38;;
58372;SDS011;44177;43.356;27.672;2023-02-15T16:15:23;8.82;;;5.40;;
58372;SDS011;44177;43.356;27.672;2023-02-15T16:17:52;9.02;;;5.22;;
58372;SDS011;44177;43.356;27.672;2023-02-15T16:22:49;8.43;;;5.28;;
58372;SDS011;44177;43.356;27.672;2023-02-15T16:28:10;8.65;;;5.50;;
58372;SDS011;44177;43.356;27.672;2023-02-15T16:30:37;9.13;;;5.22;;
58372;SDS011;44177;43.356;27.672;2023-02-15T16:35:41;8.52;;;5.43;;
58372;SDS011;44177;43.356;27.672;2023-02-15T16:43:42;10.23;;;5.53;;
58372;SDS011;44177;43.356;27.672;2023-02-15T16:46:12;7.15;;;4.80;;
58372;SDS011;44177;43.356;27.672;2023-02-15T16:48:46;7.55;;;5.03;;
58372;SDS011;44177;43.356;27.672;2023-02-15T16:51:20;7.80;;;5.20;;
58372;SDS011;44177;43.356;27.672;2023-02-15T16:53:48;9.25;;;5.07;;
58372;SDS011;44177;43.356;27.672;2023-02-15T16:56:14;8.95;;;5.40;;
58372;SDS011;44177;43.356;27.672;2023-02-15T16:58:43;7.50;;;4.95;;
58372;SDS011;44177;43.356;27.672;2023-02-15T17:01:13;7.43;;;5.03;;
58372;SDS011;44177;43.356;27.672;2023-02-15T17:03:40;8.77;;;4.68;;
58372;SDS011;44177;43.356;27.672;2023-02-15T17:06:21;8.15;;;5.07;;
58372;SDS011;44177;43.356;27.672;2023-02-15T17:08:48;7.45;;;5.05;;
58372;SDS011;44177;43.356;27.672;2023-02-15T17:11:21;8.73;;;5.18;;
58372;SDS011;44177;43.356;27.672;2023-02-15T17:14:10;9.05;;;4.95;;
58372;SDS011;44177;43.356;27.672;2023-02-15T17:16:43;8.63;;;5.25;;
58372;SDS011;44177;43.356;27.672;2023-02-15T17:19:44;7.30;;;4.70;;
58372;SDS011;44177;43.356;27.672;2023-02-15T17:22:15;7.85;;;4.78;;
58372;SDS011;44177;43.356;27.672;2023-02-15T17:24:47;8.52;;;5.22;;
58372;SDS011;44177;43.356;27.672;2023-02-15T17:29:44;8.32;;;4.95;;
58372;SDS011;44177;43.356;27.672;2023-02-15T17:32:23;7.60;;;5.32;;
58372;SDS011;44177;43.356;27.672;2023-02-15T17:40:35;8.02;;;5.22;;
58372;SDS011;44177;43.356;27.672;2023-02-15T17:42:55;10.07;;;5.55;;
58372;SDS011;44177;43.356;27.672;2023-02-15T17:45:21;7.10;;;4.82;;
58372;SDS011;44177;43.356;27.672;2023-02-15T17:47:49;7.60;;;5.22;;
58372;SDS011;44177;43.356;27.672;2023-02-15T17:50:17;8.55;;;5.20;;
58372;SDS011;44177;43.356;27.672;2023-02-15T17:52:46;7.25;;;4.68;;
58372;SDS011;44177;43.356;27.672;2023-02-15T17:55:15;8.02;;;4.78;;
58372;SDS011;44177;43.356;27.672;2023-02-15T17:58:03;8.60;;;5.10;;
58372;SDS011;44177;43.356;27.672;2023-02-15T18:00:31;8.20;;;4.68;;
58372;SDS011;44177;43.356;27.672;2023-02-15T18:03:17;8.45;;;5.18;;
58372;SDS011;44177;43.356;27.672;2023-02-15T18:06:01;7.53;;;5.10;;
58372;SDS011;44177;43.356;27.672;2023-02-15T18:08:45;8.60;;;4.85;;
58372;SDS011;44177;43.356;27.672;2023-02-15T18:11:29;8.30;;;5.30;;
58372;SDS011;44177;43.356;27.672;2023-02-15T18:14:07;9.13;;;5.32;;
58372;SDS011;44177;43.356;27.672;2023-02-15T18:16:35;8.40;;;5.32;;
58372;SDS011;44177;43.356;27.672;2023-02-15T18:19:16;8.60;;;5.30;;